Time;durP1;ratioP1;P1;durP2;ratioP2;P2;SDS_P1;SDS_P2;PMS_P1;PMS_P2;Temp;Humidity;BMP_temperature;BMP_pressure;BME280_temperature;BME280_humidity;BME280_pressure;Samples;Min_cycle;Max_cycle;Signal;HPM_P1;HPM_P2
2024/02/02 00:00:06;;;;;;;;;;;;;;;5.30;100.00;101271.44;4925763;29;19923;-81
2024/02/02 00:02:37;;;;;;;;;;;;;;;5.34;100.00;101278.47;4926287;29;20753;-79
2024/02/02 00:05:02;;;;;;;;;;;;;;;5.34;100.00;101273.22;4908808;29;20343;-79
2024/02/02 00:07:28;;;;;;;;;;;;;;;5.31;100.00;101268.81;4927151;29;19955;-80
2024/02/02 00:09:53;;;;;;;;;;;;;;;5.32;100.00;101264.44;4926881;29;19969;-79
2024/02/02 00:12:18;;;;;;;;;;;;;;;5.29;100.00;101265.31;4917986;29;20410;-79
2024/02/02 00:14:43;;;;;;;;;;;;;;;5.30;100.00;101268.81;4927464;29;19930;-79
2024/02/02 00:17:09;;;;;;;;;;;;;;;5.30;100.00;101263.53;4924106;29;19923;-80
2024/02/02 00:19:34;;;;;;;;;;;;;;;5.34;100.00;101262.69;4925828;29;19934;-80
2024/02/02 00:21:59;;;;;;;;;;;;;;;5.31;100.00;101262.69;4925933;29;20359;-81
2024/02/02 00:24:24;;;;;;;;;;;;;;;5.33;100.00;101268.81;4927340;29;19926;-81
2024/02/02 00:26:49;;;;;;;;;;;;;;;5.36;100.00;101276.72;4926041;29;19961;-80
2024/02/02 00:29:15;;;;;;;;;;;;;;;5.34;100.00;101271.44;4927284;29;19931;-80
2024/02/02 00:31:43;;;;;;;;;;;;;;;5.29;100.00;101257.41;4925986;29;20371;-81
2024/02/02 00:34:08;;;;;;;;;;;;;;;5.28;100.00;101282.84;4908167;29;19923;-80
2024/02/02 00:36:33;;;;;;;;;;;;;;;5.30;100.00;101274.06;4925980;29;19994;-80
2024/02/02 00:38:59;;;;;;;;;;;;;;;5.24;100.00;101269.69;4925960;29;19931;-81
2024/02/02 00:41:24;;;;;;;;;;;;;;;5.30;100.00;101266.19;4925913;29;20379;-81
2024/02/02 00:43:49;;;;;;;;;;;;;;;5.26;100.00;101278.44;4925172;29;19970;-81
2024/02/02 00:46:15;;;;;;;;;;;;;;;5.27;100.00;101278.44;4926203;29;19927;-81
2024/02/02 00:48:40;;;;;;;;;;;;;;;5.25;100.00;101269.69;4924566;29;19918;-81
2024/02/02 00:51:05;;;;;;;;;;;;;;;5.23;100.00;101260.94;4924614;29;19923;-81
2024/02/02 09:06:00;;;;;;;;;;;;;;;5.00;100.00;101287.13;4904040;29;19949;-87
2024/02/02 09:08:37;;;;;;;;;;;;;;;5.02;100.00;101282.75;4913744;29;20327;-92
2024/02/02 09:11:12;;;;;;;;;;;;;;;5.00;100.00;101275.75;4913607;29;20407;-82
2024/02/02 09:13:41;;;;;;;;;;;;;;;4.99;100.00;101279.22;4907637;29;19923;-81
2024/02/02 09:16:07;;;;;;;;;;;;;;;5.07;100.00;101274.88;4906665;29;19916;-81
2024/02/02 09:18:39;;;;;;;;;;;;;;;5.02;100.00;101281.88;4906208;29;19926;-79
2024/02/02 09:21:05;;;;;;;;;;;;;;;4.99;100.00;101279.22;4889434;29;20395;-82
2024/02/02 09:23:32;;;;;;;;;;;;;;;5.06;100.00;101281.03;4907976;29;20048;-82
2024/02/02 09:25:58;;;;;;;;;;;;;;;5.06;100.00;101283.66;4906662;29;19922;-82
2024/02/02 09:28:23;;;;;;;;;;;;;;;5.05;100.00;101281.88;4906223;29;19919;-82
2024/02/02 09:30:51;;;;;;;;;;;;;;;5.03;100.00;101294.16;4906664;29;20393;-94
2024/02/02 09:33:37;;;;;;;;;;;;;;;5.07;100.00;101293.25;4905258;29;19924;-85
2024/02/02 09:36:03;;;;;;;;;;;;;;;5.10;100.00;101306.41;4879539;29;20375;-82
2024/02/02 09:38:29;;;;;;;;;;;;;;;5.12;100.00;101298.53;4906628;29;19931;-87
2024/02/02 09:41:00;;;;;;;;;;;;;;;5.12;100.00;101302.03;4907049;29;20392;-82
2024/02/02 09:43:34;;;;;;;;;;;;;;;5.12;100.00;101307.28;4906623;29;19919;-81
2024/02/02 09:46:07;;;;;;;;;;;;;;;5.05;100.00;101302.91;4906486;29;19923;-82
2024/02/02 09:48:51;;;;;;;;;;;;;;;5.12;100.00;101306.44;4905399;29;20005;-82
2024/02/02 09:51:29;;;;;;;;;;;;;;;5.15;100.00;101315.19;4906821;29;19927;-82
2024/02/02 09:54:01;;;;;;;;;;;;;;;5.11;100.00;101326.56;4907080;29;19923;-82
2024/02/02 09:56:36;;;;;;;;;;;;;;;5.11;100.00;101317.81;4907007;29;19957;-82
2024/02/02 09:59:08;;;;;;;;;;;;;;;5.10;100.00;101327.44;4887738;29;19919;-82
2024/02/02 10:01:33;;;;;;;;;;;;;;;5.07;100.00;101320.44;4906746;29;19926;-82
2024/02/02 10:04:17;;;;;;;;;;;;;;;5.18;100.00;101319.59;4904948;29;19927;-83
2024/02/02 10:07:05;;;;;;;;;;;;;;;5.09;100.00;101315.19;4906535;29;20002;-82
2024/02/02 10:09:39;;;;;;;;;;;;;;;5.14;100.00;101318.72;4906361;29;19919;-82
2024/02/02 10:12:04;;;;;;;;;;;;;;;5.17;100.00;101325.72;4912807;29;19926;-84
2024/02/02 10:14:48;;;;;;;;;;;;;;;5.18;100.00;101314.34;4906690;29;19923;-83
2024/02/02 10:17:20;;;;;;;;;;;;;;;5.17;100.00;101325.72;4906841;29;19974;-82
2024/02/02 10:19:45;;;;;;;;;;;;;;;5.18;100.00;101319.59;4905552;29;20002;-82
2024/02/02 10:22:16;;;;;;;;;;;;;;;5.13;100.00;101327.44;4888883;29;20451;-82
2024/02/02 10:24:52;;;;;;;;;;;;;;;5.17;100.00;101329.22;4906512;29;20328;-82
2024/02/02 10:27:23;;;;;;;;;;;;;;;5.14;100.00;101329.22;4908649;29;20363;-82
2024/02/02 10:29:51;;;;;;;;;;;;;;;5.14;100.00;101329.22;4910483;29;19923;-82
2024/02/02 10:32:18;;;;;;;;;;;;;;;5.16;100.00;101327.47;4909734;29;20375;-82
2024/02/02 10:35:01;;;;;;;;;;;;;;;5.17;100.00;101329.22;4908334;29;19926;-82
2024/02/02 10:37:32;;;;;;;;;;;;;;;5.17;100.00;101326.59;4893225;29;19916;-82
2024/02/02 10:40:06;;;;;;;;;;;;;;;5.18;100.00;101325.72;4910053;29;19990;-82
2024/02/02 10:42:43;;;;;;;;;;;;;;;5.15;100.00;101323.06;4909879;29;20348;-82
2024/02/02 10:45:27;;;;;;;;;;;;;;;5.21;100.00;101325.72;4909971;29;19975;-81
2024/02/02 10:48:02;;;;;;;;;;;;;;;5.16;100.00;101316.97;4908448;29;20446;-81
2024/02/02 10:50:48;;;;;;;;;;;;;;;5.16;100.00;101316.97;4893382;29;20010;-81
2024/02/02 10:53:28;;;;;;;;;;;;;;;5.19;100.00;101322.22;4909593;29;19930;-82
2024/02/02 10:55:53;;;;;;;;;;;;;;;5.21;100.00;101311.72;4909718;29;20297;-81
2024/02/02 10:58:24;;;;;;;;;;;;;;;5.20;100.00;101308.22;4891938;29;19919;-81
2024/02/02 11:01:02;;;;;;;;;;;;;;;5.22;100.00;101293.34;4892396;29;20313;-82
2024/02/02 11:03:34;;;;;;;;;;;;;;;5.17;100.00;101296.81;4908430;29;19927;-81
2024/02/02 11:06:07;;;;;;;;;;;;;;;5.17;100.00;101292.44;4909189;29;19924;-80
2024/02/02 11:08:37;;;;;;;;;;;;;;;5.21;100.00;101291.56;4909767;29;19927;-81
2024/02/02 11:11:05;;;;;;;;;;;;;;;5.20;100.00;101287.19;4908706;29;19963;-81
2024/02/02 11:13:36;;;;;;;;;;;;;;;5.19;100.00;101289.81;4909757;29;19941;-85
2024/02/02 11:16:10;;;;;;;;;;;;;;;5.20;100.00;101278.41;4908920;29;20014;-81
2024/02/02 11:18:44;;;;;;;;;;;;;;;5.20;100.00;101276.69;4907879;29;20334;-81
2024/02/02 11:21:10;;;;;;;;;;;;;;;5.23;100.00;101267.91;4909444;29;19916;-81
2024/02/02 11:23:38;;;;;;;;;;;;;;;5.21;100.00;101260.03;4891750;29;19919;-81
2024/02/02 11:26:13;;;;;;;;;;;;;;;5.21;100.00;101257.41;4909308;29;19915;-79
2024/02/02 11:28:57;;;;;;;;;;;;;;;5.16;100.00;101256.50;4909033;29;20386;-80
2024/02/02 11:31:25;;;;;;;;;;;;;;;5.22;100.00;101251.28;4909429;29;20023;-81
2024/02/02 11:34:01;;;;;;;;;;;;;;;5.23;100.00;101249.53;4908135;29;19927;-83
2024/02/02 11:36:29;;;;;;;;;;;;;;;5.17;100.00;101246.88;4908713;29;19919;-79
2024/02/02 11:39:20;;;;;;;;;;;;;;;5.16;100.00;101243.38;4908282;29;19919;-81
2024/02/02 11:41:46;;;;;;;;;;;;;;;5.20;100.00;101233.75;4907864;29;20007;-80
2024/02/02 11:44:11;;;;;;;;;;;;;;;5.25;100.00;101234.66;4909051;29;20006;-80
2024/02/02 11:46:36;;;;;;;;;;;;;;;5.25;100.00;101227.63;4908373;29;19919;-82
2024/02/02 11:49:07;;;;;;;;;;;;;;;5.21;100.00;101236.38;4890147;29;20371;-80
2024/02/02 11:51:34;;;;;;;;;;;;;;;5.24;100.00;101220.63;4908466;29;19959;-81
2024/02/02 11:54:02;;;;;;;;;;;;;;;5.26;100.00;101226.78;4908278;29;20427;-81
2024/02/02 11:56:29;;;;;;;;;;;;;;;5.31;100.00;101221.50;4908658;29;19923;-81
2024/02/02 11:58:58;;;;;;;;;;;;;;;5.34;100.00;101212.75;4908933;29;19919;-81
2024/02/02 12:01:23;;;;;;;;;;;;;;;5.25;100.00;101222.38;4908245;29;19966;-81
2024/02/02 12:04:11;;;;;;;;;;;;;;;5.21;100.00;101217.13;4906937;29;19955;-80
2024/02/02 12:06:57;;;;;;;;;;;;;;;5.23;100.00;101224.13;4908022;29;20268;-80
2024/02/02 12:09:28;;;;;;;;;;;;;;;5.20;100.00;101225.84;4893301;29;19923;-81
2024/02/02 12:11:54;;;;;;;;;;;;;;;5.25;100.00;101222.38;4908380;29;20347;-81
2024/02/02 12:14:35;;;;;;;;;;;;;;;5.20;100.00;101221.50;4908229;29;20260;-81
2024/02/02 12:17:00;;;;;;;;;;;;;;;5.24;100.00;101214.50;4908157;29;19963;-82
2024/02/02 12:19:26;;;;;;;;;;;;;;;5.25;100.00;101213.63;4907043;29;20383;-80
2024/02/02 12:21:51;;;;;;;;;;;;;;;5.25;100.00;101217.13;4907939;29;19923;-80
2024/02/02 12:24:17;;;;;;;;;;;;;;;5.32;100.00;101212.75;4907617;29;19926;-80
2024/02/02 12:26:43;;;;;;;;;;;;;;;5.28;100.00;101211.88;4890711;29;19987;-80
2024/02/02 12:29:09;;;;;;;;;;;;;;;5.32;100.00;101217.13;4908235;29;19935;-80
2024/02/02 12:31:34;;;;;;;;;;;;;;;5.34;100.00;101202.25;4907688;29;19919;-80
2024/02/02 12:34:00;;;;;;;;;;;;;;;5.28;100.00;101192.56;4906260;29;20006;-80
2024/02/02 12:36:26;;;;;;;;;;;;;;;5.26;100.00;101192.59;4908196;29;19915;-81
2024/02/02 12:38:51;;;;;;;;;;;;;;;5.35;100.00;101182.97;4907690;29;20443;-81
2024/02/02 12:41:16;;;;;;;;;;;;;;;5.28;100.00;101193.47;4907800;29;19962;-80
2024/02/02 12:43:45;;;;;;;;;;;;;;;5.38;100.00;101189.09;4890815;29;19966;-80
2024/02/02 12:46:11;;;;;;;;;;;;;;;5.36;100.00;101188.22;4907599;29;19973;-80
2024/02/02 12:48:36;;;;;;;;;;;;;;;5.33;100.00;101171.56;4906159;29;19970;-80
2024/02/02 12:51:02;;;;;;;;;;;;;;;5.31;100.00;101168.94;4906465;29;19923;-80
2024/02/02 12:53:28;;;;;;;;;;;;;;;5.32;100.00;101159.31;4907114;29;19930;-80
2024/02/02 12:55:53;;;;;;;;;;;;;;;5.31;100.00;101160.19;4890394;29;19919;-80
2024/02/02 12:58:19;;;;;;;;;;;;;;;5.35;100.00;101156.69;4906969;29;19920;-81
2024/02/02 13:00:44;;;;;;;;;;;;;;;5.30;100.00;101153.16;4907328;29;19950;-81
2024/02/02 13:03:12;;;;;;;;;;;;;;;5.33;100.00;101153.16;4906338;29;20002;-81
2024/02/02 13:05:38;;;;;;;;;;;;;;;5.30;100.00;101166.28;4906841;29;19932;-81
2024/02/02 13:08:03;;;;;;;;;;;;;;;5.38;100.00;101148.81;4906996;29;19919;-81
2024/02/02 13:10:39;;;;;;;;;;;;;;;5.35;100.00;101148.81;4907292;29;19926;-81
2024/02/02 13:13:19;;;;;;;;;;;;;;;5.30;100.00;101142.66;4907135;29;19919;-80
2024/02/02 13:15:45;;;;;;;;;;;;;;;5.35;100.00;101148.81;4907259;29;19919;-80
2024/02/02 13:18:12;;;;;;;;;;;;;;;5.35;100.00;101154.06;4905440;29;20014;-80
2024/02/02 13:20:38;;;;;;;;;;;;;;;5.31;100.00;101145.28;4907329;29;19920;-80
2024/02/02 13:23:10;;;;;;;;;;;;;;;5.30;100.00;101142.66;4906698;29;19938;-80
2024/02/02 13:25:38;;;;;;;;;;;;;;;5.33;100.00;101126.88;4906884;29;20024;-81
2024/02/02 13:28:03;;;;;;;;;;;;;;;5.32;100.00;101128.63;4907216;29;19930;-81
2024/02/02 13:30:31;;;;;;;;;;;;;;;5.32;100.00;101131.28;4907199;29;19919;-80
2024/02/02 13:32:59;;;;;;;;;;;;;;;5.39;100.00;101124.25;4905320;29;19979;-80
2024/02/02 13:35:29;;;;;;;;;;;;;;;5.33;100.00;101126.88;4907132;29;19919;-80
2024/02/02 13:37:55;;;;;;;;;;;;;;;5.36;100.00;101127.78;4906713;29;20295;-79
2024/02/02 13:40:22;;;;;;;;;;;;;;;5.39;100.00;101122.53;4906952;29;19919;-80
2024/02/02 13:42:50;;;;;;;;;;;;;;;5.35;100.00;101125.16;4889295;29;19923;-80
2024/02/02 13:45:15;;;;;;;;;;;;;;;5.28;100.00;101127.78;4888979;29;19923;-81
2024/02/02 13:47:41;;;;;;;;;;;;;;;5.30;100.00;101125.16;4905289;29;19926;-81
2024/02/02 13:50:15;;;;;;;;;;;;;;;5.31;100.00;101121.63;4906931;29;19919;-80
2024/02/02 13:52:40;;;;;;;;;;;;;;;5.36;100.00;101108.47;4906513;29;20290;-86
2024/02/02 13:55:06;;;;;;;;;;;;;;;5.43;100.00;101100.59;4889234;29;19919;-85
2024/02/02 13:57:31;;;;;;;;;;;;;;;5.35;100.00;101098.88;4889000;29;19954;-80
2024/02/02 13:59:57;;;;;;;;;;;;;;;5.32;100.00;101090.97;4906394;29;20356;-79
2024/02/02 14:02:26;;;;;;;;;;;;;;;5.37;100.00;101083.97;4905792;29;20471;-84
2024/02/02 14:04:53;;;;;;;;;;;;;;;5.37;100.00;101083.97;4905729;29;19923;-80
2024/02/02 14:07:19;;;;;;;;;;;;;;;5.39;100.00;101071.69;4906082;29;19957;-83
2024/02/02 14:09:45;;;;;;;;;;;;;;;5.34;100.00;101069.06;4906165;29;20021;-81
2024/02/02 14:12:11;;;;;;;;;;;;;;;5.30;100.00;101069.94;4904937;29;20035;-81
2024/02/02 14:14:37;;;;;;;;;;;;;;;5.30;100.00;101066.44;4906062;29;19923;-80
2024/02/02 14:17:05;;;;;;;;;;;;;;;5.35;100.00;101065.56;4907179;29;19983;-83
2024/02/02 14:19:31;;;;;;;;;;;;;;;5.29;100.00;101055.03;4904791;29;19919;-81
2024/02/02 14:22:06;;;;;;;;;;;;;;;5.31;100.00;101049.78;4906513;29;19930;-80
2024/02/02 14:24:32;;;;;;;;;;;;;;;5.34;100.00;101049.78;4906416;29;20037;-78
2024/02/02 14:26:59;;;;;;;;;;;;;;;5.31;100.00;101060.31;4906365;29;20362;-81
2024/02/02 14:29:25;;;;;;;;;;;;;;;5.38;100.00;101060.31;4905935;29;19923;-79
2024/02/02 14:31:57;;;;;;;;;;;;;;;5.40;100.00;101066.41;4906047;29;19978;-80
2024/02/02 14:34:23;;;;;;;;;;;;;;;5.33;100.00;101075.22;4905116;29;19919;-80
2024/02/02 14:36:49;;;;;;;;;;;;;;;5.38;100.00;101064.69;4906178;29;19919;-80
2024/02/02 14:39:22;;;;;;;;;;;;;;;5.35;100.00;101055.03;4906590;29;19920;-79
2024/02/02 14:41:47;;;;;;;;;;;;;;;5.33;100.00;101067.31;4905868;29;19922;-80
2024/02/02 14:44:13;;;;;;;;;;;;;;;5.34;100.00;101070.81;4906352;29;20409;-80
2024/02/02 14:46:39;;;;;;;;;;;;;;;5.33;100.00;101066.44;4906364;29;19915;-80
2024/02/02 14:49:05;;;;;;;;;;;;;;;5.37;100.00;101071.69;4904261;29;20421;-80
2024/02/02 14:51:30;;;;;;;;;;;;;;;5.32;100.00;101069.94;4906265;29;19919;-80
2024/02/02 14:53:55;;;;;;;;;;;;;;;5.31;100.00;101069.06;4905736;29;19919;-80
2024/02/02 14:56:21;;;;;;;;;;;;;;;5.35;100.00;101064.69;4905534;29;20279;-81
2024/02/02 14:58:46;;;;;;;;;;;;;;;5.31;100.00;101057.66;4906191;29;19926;-79
2024/02/02 15:01:13;;;;;;;;;;;;;;;5.30;100.00;101055.91;4906104;29;19958;-80
2024/02/02 15:03:39;;;;;;;;;;;;;;;5.27;100.00;101072.56;4904152;29;20375;-79
2024/02/02 15:06:04;;;;;;;;;;;;;;;5.32;100.00;101064.69;4906111;29;19926;-80
2024/02/02 15:08:30;;;;;;;;;;;;;;;5.32;100.00;101062.94;4905382;29;20297;-85
2024/02/02 15:10:55;;;;;;;;;;;;;;;5.35;100.00;101062.06;4888926;29;19920;-82
2024/02/02 15:13:20;;;;;;;;;;;;;;;5.35;100.00;101051.56;4890532;29;19930;-80
2024/02/02 15:15:45;;;;;;;;;;;;;;;5.30;100.00;101050.66;4909133;29;20028;-80
2024/02/02 15:18:11;;;;;;;;;;;;;;;5.38;100.00;101041.03;4890530;29;20860;-80
2024/02/02 15:20:37;;;;;;;;;;;;;;;5.35;100.00;101044.53;4907978;29;19926;-80
2024/02/02 15:23:02;;;;;;;;;;;;;;;5.33;100.00;101045.41;4909062;29;19919;-80
2024/02/02 15:25:27;;;;;;;;;;;;;;;5.44;100.00;101054.13;4908799;29;19923;-80
2024/02/02 15:27:53;;;;;;;;;;;;;;;5.37;100.00;101052.41;4908876;29;19975;-78
2024/02/02 15:30:18;;;;;;;;;;;;;;;5.32;100.00;101048.94;4908914;29;19923;-80
2024/02/02 15:32:44;;;;;;;;;;;;;;;5.33;100.00;101048.03;4907789;29;19919;-80
2024/02/02 15:35:15;;;;;;;;;;;;;;;5.36;100.00;101051.56;4908763;29;20010;-80
2024/02/02 15:37:41;;;;;;;;;;;;;;;5.35;100.00;101052.41;4908414;29;19962;-81
2024/02/02 15:40:07;;;;;;;;;;;;;;;5.31;100.00;101047.16;4891591;29;19955;-81
2024/02/02 15:42:32;;;;;;;;;;;;;;;5.34;100.00;101047.16;4908242;29;19919;-82
2024/02/02 15:44:58;;;;;;;;;;;;;;;5.39;100.00;101048.03;4891699;29;19921;-80
2024/02/02 15:47:23;;;;;;;;;;;;;;;5.32;100.00;101052.41;4908944;29;19923;-79
2024/02/02 15:49:48;;;;;;;;;;;;;;;5.37;100.00;101044.53;4907130;29;19919;-80
2024/02/02 15:52:13;;;;;;;;;;;;;;;5.35;100.00;101055.03;4908259;29;20034;-80
2024/02/02 15:54:38;;;;;;;;;;;;;;;5.33;100.00;101048.94;4908146;29;19926;-80
2024/02/02 15:57:04;;;;;;;;;;;;;;;5.39;100.00;101050.66;4908485;29;19923;-80
2024/02/02 15:59:30;;;;;;;;;;;;;;;5.37;100.00;101048.03;4908921;29;19947;-79
2024/02/02 16:01:56;;;;;;;;;;;;;;;5.37;100.00;101053.28;4908240;29;20423;-79
2024/02/02 16:04:21;;;;;;;;;;;;;;;5.39;100.00;101066.41;4907214;29;19923;-80
2024/02/02 16:06:47;;;;;;;;;;;;;;;5.40;100.00;101065.56;4908267;29;19930;-82
2024/02/02 16:09:12;;;;;;;;;;;;;;;5.37;100.00;101073.44;4907966;29;20379;-81
2024/02/02 16:11:37;;;;;;;;;;;;;;;5.32;100.00;101069.94;4907642;29;19927;-80
2024/02/02 16:14:03;;;;;;;;;;;;;;;5.33;100.00;101075.22;4908409;29;20323;-80
2024/02/02 16:16:28;;;;;;;;;;;;;;;5.31;100.00;101076.06;4908018;29;20371;-82
2024/02/02 16:18:53;;;;;;;;;;;;;;;5.32;100.00;101067.31;4906315;29;20014;-80
2024/02/02 16:21:18;;;;;;;;;;;;;;;5.31;100.00;101069.06;4907837;29;19915;-81
2024/02/02 16:23:44;;;;;;;;;;;;;;;5.34;100.00;101063.78;4907945;29;20342;-81
2024/02/02 16:26:09;;;;;;;;;;;;;;;5.36;100.00;101066.44;4907657;29;20311;-81
2024/02/02 16:28:35;;;;;;;;;;;;;;;5.36;100.00;101071.69;4907695;29;19922;-83
2024/02/02 16:31:00;;;;;;;;;;;;;;;5.32;100.00;101064.69;4907441;29;19919;-81
2024/02/02 16:33:26;;;;;;;;;;;;;;;5.38;100.00;101062.06;4906730;29;19980;-88
2024/02/02 16:35:51;;;;;;;;;;;;;;;5.39;100.00;101072.56;4908003;29;20438;-82
2024/02/02 16:38:19;;;;;;;;;;;;;;;5.35;100.00;101056.81;4908025;29;20354;-86
2024/02/02 16:40:44;;;;;;;;;;;;;;;5.38;100.00;101065.56;4890925;29;20006;-81
2024/02/02 16:43:18;;;;;;;;;;;;;;;5.37;100.00;101074.31;4907469;29;20018;-82
2024/02/02 16:45:44;;;;;;;;;;;;;;;5.37;100.00;101055.91;4889971;29;19974;-82
2024/02/02 16:48:09;;;;;;;;;;;;;;;5.31;100.00;101063.78;4905226;29;20355;-82
2024/02/02 16:50:36;;;;;;;;;;;;;;;6.33;100.00;101061.81;4907515;29;19919;-84
2024/02/02 16:53:02;;;;;;;;;;;;;;;5.87;100.00;101072.47;4907050;29;19919;-83
2024/02/02 16:55:27;;;;;;;;;;;;;;;5.69;100.00;101073.38;4907084;29;19934;-82
2024/02/02 16:58:01;;;;;;;;;;;;;;;5.64;100.00;101069.91;4907277;29;19919;-83
2024/02/02 17:00:26;;;;;;;;;;;;;;;5.55;100.00;101062.03;4890665;29;20356;-83
2024/02/02 17:02:51;;;;;;;;;;;;;;;5.55;100.00;101062.91;4905807;29;20218;-82
2024/02/02 17:05:16;;;;;;;;;;;;;;;5.59;100.00;101074.28;4889655;29;19970;-84
2024/02/02 17:07:42;;;;;;;;;;;;;;;5.61;100.00;101069.91;4906677;29;20022;-81
2024/02/02 17:10:07;;;;;;;;;;;;;;;5.56;100.00;101064.66;4913842;29;19951;-89
2024/02/02 17:12:35;;;;;;;;;;;;;;;5.56;100.00;101069.03;4889751;29;20291;-86
2024/02/02 17:15:02;;;;;;;;;;;;;;;5.55;100.00;101067.28;4889632;29;19924;-81
2024/02/02 17:17:30;;;;;;;;;;;;;;;5.51;100.00;101066.41;4890159;29;19919;-85
2024/02/02 17:19:55;;;;;;;;;;;;;;;5.57;100.00;101071.66;4905654;29;20007;-82
2024/02/02 17:22:21;;;;;;;;;;;;;;;5.57;100.00;101071.66;4907042;29;20006;-80
2024/02/02 17:24:46;;;;;;;;;;;;;;;5.52;100.00;101073.44;4906274;29;19978;-83
2024/02/02 17:27:11;;;;;;;;;;;;;;;5.60;100.00;101068.13;4907107;29;19919;-82
2024/02/02 17:29:41;;;;;;;;;;;;;;;5.54;100.00;101061.16;4907249;29;19937;-81
2024/02/02 17:32:06;;;;;;;;;;;;;;;5.57;100.00;101065.53;4907350;29;20272;-84
2024/02/02 17:34:31;;;;;;;;;;;;;;;5.56;100.00;101063.78;4905158;29;19923;-83
2024/02/02 17:36:57;;;;;;;;;;;;;;;5.52;100.00;101062.03;4907036;29;19922;-82
2024/02/02 17:39:36;;;;;;;;;;;;;;;5.51;100.00;101082.19;4906525;29;19923;-85
2024/02/02 17:42:01;;;;;;;;;;;;;;;5.54;100.00;101078.69;4889142;29;19925;-82
2024/02/02 17:44:27;;;;;;;;;;;;;;;5.51;100.00;101078.69;4906749;29;19998;-81
2024/02/02 17:46:53;;;;;;;;;;;;;;;5.52;100.00;101065.53;4906683;29;19975;-82
2024/02/02 17:49:18;;;;;;;;;;;;;;;5.57;100.00;101068.16;4905105;29;19927;-81
2024/02/02 17:51:43;;;;;;;;;;;;;;;5.54;100.00;101070.81;4889091;29;19920;-84
2024/02/02 17:54:09;;;;;;;;;;;;;;;5.42;100.00;101076.94;4906668;29;20405;-82
2024/02/02 17:56:34;;;;;;;;;;;;;;;5.49;100.00;101072.53;4905637;29;19925;-81
2024/02/02 17:58:59;;;;;;;;;;;;;;;5.51;100.00;101071.66;4904894;29;20003;-82
2024/02/02 18:01:27;;;;;;;;;;;;;;;5.51;100.00;101071.66;4889115;29;19926;-91
2024/02/02 18:03:53;;;;;;;;;;;;;;;5.53;100.00;101074.31;4905252;29;20006;-86
2024/02/02 18:06:18;;;;;;;;;;;;;;;5.43;100.00;101089.22;4907038;29;20322;-83
2024/02/02 18:08:43;;;;;;;;;;;;;;;5.53;100.00;101090.94;4906438;29;20424;-81
2024/02/02 18:11:09;;;;;;;;;;;;;;;5.43;100.00;101083.97;4907137;29;19923;-81
2024/02/02 18:13:34;;;;;;;;;;;;;;;5.53;100.00;101096.19;4906312;29;20534;-81
2024/02/02 18:15:59;;;;;;;;;;;;;;;5.56;100.00;101087.44;4906906;29;19927;-81
2024/02/02 18:18:26;;;;;;;;;;;;;;;5.54;100.00;101097.97;4904550;29;19927;-82
2024/02/02 18:20:51;;;;;;;;;;;;;;;5.56;100.00;101095.34;4905800;29;19923;-81
2024/02/02 18:23:16;;;;;;;;;;;;;;;5.54;100.00;101108.47;4906695;29;20290;-81
2024/02/02 18:25:41;;;;;;;;;;;;;;;5.52;100.00;101112.88;4906537;29;20401;-80
2024/02/02 18:28:12;;;;;;;;;;;;;;;5.55;100.00;101115.50;4907480;29;20274;-84
2024/02/02 18:30:37;;;;;;;;;;;;;;;5.50;100.00;101111.09;4888904;29;19919;-80
2024/02/02 18:33:02;;;;;;;;;;;;;;;5.52;100.00;101120.75;4904292;29;19930;-88
2024/02/02 18:35:27;;;;;;;;;;;;;;;5.57;100.00;101118.13;4905965;29;19931;-88
2024/02/02 18:37:54;;;;;;;;;;;;;;;5.57;100.00;101112.88;4906384;29;19919;-85
2024/02/02 18:40:23;;;;;;;;;;;;;;;5.50;100.00;101109.34;4906037;29;19927;-87
2024/02/02 18:42:48;;;;;;;;;;;;;;;5.49;100.00;101105.00;4906520;29;19979;-82
2024/02/02 18:45:13;;;;;;;;;;;;;;;5.47;100.00;101106.72;4905044;29;19919;-85
2024/02/02 18:47:39;;;;;;;;;;;;;;;5.48;100.00;101103.22;4906891;29;19968;-81
2024/02/02 18:50:04;;;;;;;;;;;;;;;5.49;100.00;101104.09;4892790;29;19919;-82
2024/02/02 18:52:30;;;;;;;;;;;;;;;5.54;100.00;101087.44;4909720;29;19927;-83
2024/02/02 18:54:55;;;;;;;;;;;;;;;5.44;100.00;101093.56;4906980;29;20034;-87
2024/02/02 18:57:20;;;;;;;;;;;;;;;5.56;100.00;101083.06;4891975;29;19938;-82
2024/02/02 18:59:45;;;;;;;;;;;;;;;5.49;100.00;101083.94;4909628;29;19926;-82
2024/02/02 19:02:11;;;;;;;;;;;;;;;5.52;100.00;101088.31;4907567;29;19926;-81
2024/02/02 19:04:36;;;;;;;;;;;;;;;5.89;100.00;101086.50;4891384;29;19923;-83
2024/02/02 19:07:02;;;;;;;;;;;;;;;5.74;100.00;101083.91;4909207;29;19928;-88
2024/02/02 19:09:29;;;;;;;;;;;;;;;5.73;100.00;101082.16;4909441;29;19923;-88
2024/02/02 19:11:55;;;;;;;;;;;;;;;5.61;100.00;101090.94;4907274;29;19930;-91
2024/02/02 19:14:21;;;;;;;;;;;;;;;5.68;100.00;101095.31;4892031;29;20364;-83
2024/02/02 19:16:47;;;;;;;;;;;;;;;5.56;100.00;101101.47;4908399;29;19919;-83
2024/02/02 19:19:12;;;;;;;;;;;;;;;5.61;100.00;101089.16;4907342;29;20272;-83
2024/02/02 19:21:39;;;;;;;;;;;;;;;5.56;100.00;101095.34;4909337;29;20286;-81
2024/02/02 19:24:04;;;;;;;;;;;;;;;5.57;100.00;101100.59;4908787;29;20367;-83
2024/02/02 19:26:29;;;;;;;;;;;;;;;5.56;100.00;101088.31;4908814;29;19927;-82
2024/02/02 19:28:55;;;;;;;;;;;;;;;5.53;100.00;101098.81;4909094;29;19916;-82
2024/02/02 19:31:23;;;;;;;;;;;;;;;5.60;100.00;101092.69;4908953;29;19923;-82
2024/02/02 19:33:48;;;;;;;;;;;;;;;5.58;100.00;101097.06;4906993;29;19923;-89
2024/02/02 19:36:20;;;;;;;;;;;;;;;5.55;100.00;101089.22;4909159;29;19923;-82
2024/02/02 19:38:46;;;;;;;;;;;;;;;5.54;100.00;101090.06;4899921;29;20018;-84
2024/02/02 19:41:18;;;;;;;;;;;;;;;5.51;100.00;101092.72;4909054;29;20054;-88
2024/02/02 19:43:44;;;;;;;;;;;;;;;5.56;100.00;101082.19;4891120;29;20473;-83
2024/02/02 19:46:17;;;;;;;;;;;;;;;5.63;100.00;101076.91;4908407;29;19931;-86
2024/02/02 19:48:42;;;;;;;;;;;;;;;5.61;100.00;101065.50;4908149;29;19963;-81
2024/02/02 19:51:07;;;;;;;;;;;;;;;5.51;100.00;101079.56;4906858;29;19977;-86
2024/02/02 19:53:33;;;;;;;;;;;;;;;5.57;100.00;101073.44;4890881;29;19920;-81
2024/02/02 19:56:02;;;;;;;;;;;;;;;5.60;100.00;101071.66;4891033;29;19923;-81
2024/02/02 19:58:30;;;;;;;;;;;;;;;5.63;100.00;101092.69;4908533;29;20427;-88
2024/02/02 20:00:55;;;;;;;;;;;;;;;5.51;100.00;101097.97;4907873;29;19935;-80
2024/02/02 20:03:21;;;;;;;;;;;;;;;5.55;100.00;101107.63;4890770;29;20036;-82
2024/02/02 20:05:46;;;;;;;;;;;;;;;5.60;100.00;101107.56;4891517;29;19923;-82
2024/02/02 20:08:11;;;;;;;;;;;;;;;5.59;100.00;101108.47;4908099;29;19935;-82
2024/02/02 20:10:36;;;;;;;;;;;;;;;5.56;100.00;101106.72;4907857;29;19915;-87
2024/02/02 20:13:01;;;;;;;;;;;;;;;5.58;100.00;101115.47;4908230;29;20364;-81
2024/02/02 20:15:27;;;;;;;;;;;;;;;5.56;100.00;101105.84;4908243;29;20474;-81
2024/02/02 20:17:52;;;;;;;;;;;;;;;5.63;100.00;101097.97;4907236;29;19931;-85
2024/02/02 20:20:17;;;;;;;;;;;;;;;5.62;100.00;101092.69;4906293;29;20244;-80
2024/02/02 20:22:43;;;;;;;;;;;;;;;5.66;100.00;101083.03;4907491;29;19927;-82
2024/02/02 20:25:08;;;;;;;;;;;;;;;5.60;100.00;101086.53;4908164;29;19927;-81
2024/02/02 20:27:33;;;;;;;;;;;;;;;5.59;100.00;101085.69;4890614;29;20003;-81
2024/02/02 20:29:59;;;;;;;;;;;;;;;5.61;100.00;101083.91;4905965;29;19977;-86
2024/02/02 20:32:24;;;;;;;;;;;;;;;5.68;100.00;101081.28;4907210;29;19919;-82
2024/02/02 20:34:49;;;;;;;;;;;;;;;5.63;100.00;101082.19;4906946;29;19973;-83
2024/02/02 20:37:14;;;;;;;;;;;;;;;5.63;100.00;101081.28;4890148;29;19970;-80
2024/02/02 20:39:40;;;;;;;;;;;;;;;5.67;100.00;101085.66;4907936;29;19959;-82
2024/02/02 20:42:06;;;;;;;;;;;;;;;5.67;100.00;101090.06;4907382;29;19931;-83
2024/02/02 20:44:31;;;;;;;;;;;;;;;5.66;100.00;101093.56;4907296;29;19924;-83
2024/02/02 20:46:56;;;;;;;;;;;;;;;5.71;100.00;101102.31;4889192;29;19931;-82
2024/02/02 20:49:21;;;;;;;;;;;;;;;5.71;100.00;101099.69;4906268;29;20010;-89